Observations for Trim Market St
| Time | AQI | Temp °C | Hum % | Pres Pa | CO μg/m³ | H₂S μg/m³ | NO μg/m³ | NO₂ μg/m³ | O₃ μg/m³ | SO₂ μg/m³ | PM1 μg/m³ | PM2.5 μg/m³ | PM10 μg/m³ |
|---|---|---|---|---|---|---|---|---|---|---|---|---|---|
| Monday 24 August 2026 | |||||||||||||
| 20:08 | 4 | 19.8 | 51 | 56,038 | 0.02 | 3.92 | 1.09 | 38.52 | 73.49 | 0 | 2.85 | 6.51 | 9.01 |
| 20:03 | 4 | 20 | 50 | 56,186 | 0.01 | 4.5 | 1 | 50.81 | 48.75 | 0 | 2.14 | 7.07 | 9.02 |
| 20:01 | 4 | 20.1 | 50 | 56,502 | 0 | 4.26 | 1.02 | 36.1 | 74.04 | 0 | 3.56 | 6.58 | 9.02 |
| 19:56 | 4 | 20.3 | 49 | 58,224 | 0 | 4.81 | 0.94 | 38.46 | 75.99 | 0 | 2.85 | 6.64 | 9.03 |
| 19:55 | 4 | 20.4 | 48 | 58,795 | 0 | 5.08 | 0.93 | 32.82 | 83.81 | 0 | 2.85 | 6.65 | 9.79 |
| 19:54 | 4 | 20.4 | 48 | 59,255 | 0 | 4.79 | 0.87 | 37.63 | 86.22 | 0 | 2.85 | 6.14 | 9.04 |
| 19:53 | 4 | 20.4 | 48 | 59,922 | 0 | 4.84 | 0.8 | 34.88 | 77.48 | 0 | 2.85 | 6.68 | 8.28 |
| 19:52 | 4 | 20.5 | 48 | 60,485 | 0 | 4.81 | 0.82 | 37.61 | 85.79 | 0 | 2.85 | 7.21 | 10.56 |
| 19:51 | 4 | 20.5 | 48 | 61,184 | 0 | 4.08 | 0.85 | 30.67 | 82.18 | 0 | 2.85 | 9.29 | 12.85 |
| 19:50 | 4 | 20.6 | 47 | 61,694 | 0 | 4.47 | 0.95 | 31.44 | 81.88 | 0 | 2.14 | 6.71 | 9.05 |
| 19:49 | 4 | 20.6 | 47 | 62,134 | 0 | 5.23 | 0.93 | 29.8 | 89.67 | 0 | 2.85 | 6.73 | 10.58 |
| 19:48 | 4 | 20.6 | 47 | 62,641 | 0 | 4.84 | 0.95 | 36.42 | 85.03 | 0 | 2.85 | 7.26 | 9.05 |
| 19:47 | 4 | 20.7 | 47 | 63,211 | 0 | 4.31 | 0.98 | 37.16 | 78.73 | 0 | 3.56 | 7.27 | 9.82 |
| 19:46 | 4 | 20.7 | 46 | 63,529 | 0 | 3.26 | 0.95 | 31 | 72.85 | 0 | 2.85 | 7.8 | 10.59 |
| 19:45 | 4 | 20.8 | 46 | 63,809 | 0 | 2.86 | 0.84 | 28.88 | 75.11 | 0 | 2.85 | 6.77 | 9.83 |
| 19:44 | 4 | 20.8 | 46 | 64,015 | 0 | 2.99 | 0.96 | 28.07 | 85.73 | 0 | 3.56 | 7.3 | 9.06 |
| 19:43 | 4 | 20.8 | 46 | 64,147 | 0 | 1.99 | 0.95 | 21.41 | 83.04 | 0 | 3.56 | 8.35 | 10.61 |
| 19:40 | 4 | 20.9 | 45 | 64,402 | 0 | 1.31 | 0.99 | 21.69 | 75.95 | 0 | 2.85 | 6.3 | 7.53 |
| 19:39 | 4 | 21 | 45 | 64,477 | 0 | 1.65 | 0.91 | 19.97 | 77.95 | 0 | 2.85 | 5.78 | 8.3 |
| 19:34 | 4 | 21.1 | 45 | 64,801 | 0 | 1.2 | 0.99 | 21.09 | 79.65 | 0 | 3.56 | 7.9 | 10.63 |